TimeCST,TemperatureF,Dew PointF,Humidity,Sea Level PressureIn,VisibilityMPH,Wind Direction,Wind SpeedMPH,Gust SpeedMPH,PrecipitationIn,Events,Conditions,WindDirDegrees,DateUTC
12:15 AM,24.8,21.2,86,30.11,10.0,Calm,Calm,-,N/A,,Clear,0,2012-12-14 06:15:00
12:35 AM,23.0,21.2,93,30.11,10.0,Calm,Calm,-,N/A,,Clear,0,2012-12-14 06:35:00
12:55 AM,23.0,19.4,86,30.12,10.0,Calm,Calm,-,N/A,,Clear,0,2012-12-14 06:55:00
1:15 AM,21.2,19.4,93,30.13,10.0,Calm,Calm,-,N/A,,Clear,0,2012-12-14 07:15:00
1:35 AM,24.8,21.2,86,30.14,10.0,Calm,Calm,-,N/A,,Clear,0,2012-12-14 07:35:00
1:55 AM,23.0,21.2,93,30.15,10.0,Calm,Calm,-,N/A,,Clear,0,2012-12-14 07:55:00
2:15 AM,19.4,17.6,93,30.15,10.0,Calm,Calm,-,N/A,,Clear,0,2012-12-14 08:15:00
2:55 AM,21.2,19.4,93,30.15,7.0,Calm,Calm,-,N/A,,Clear,0,2012-12-14 08:55:00
3:15 AM,21.2,19.4,93,30.15,10.0,Calm,Calm,-,N/A,,Clear,0,2012-12-14 09:15:00
3:35 AM,21.2,19.4,93,30.16,5.0,Calm,Calm,-,N/A,,Clear,0,2012-12-14 09:35:00
3:55 AM,21.2,19.4,93,30.16,10.0,Calm,Calm,-,N/A,,Clear,0,2012-12-14 09:55:00
4:15 AM,21.2,19.4,93,30.16,10.0,Calm,Calm,-,N/A,,Clear,0,2012-12-14 10:15:00
4:35 AM,21.2,19.4,93,30.17,10.0,Calm,Calm,-,N/A,,Clear,0,2012-12-14 10:35:00
4:55 AM,21.2,19.4,93,30.17,7.0,Calm,Calm,-,N/A,,Clear,0,2012-12-14 10:55:00
5:15 AM,21.2,19.4,93,30.16,7.0,Calm,Calm,-,N/A,,Clear,0,2012-12-14 11:15:00
5:35 AM,21.2,19.4,93,30.17,7.0,Calm,Calm,-,N/A,,Clear,0,2012-12-14 11:35:00
5:55 AM,21.2,19.4,93,30.17,7.0,Calm,Calm,-,N/A,,Clear,0,2012-12-14 11:55:00
6:15 AM,21.2,19.4,93,30.17,4.0,Calm,Calm,-,N/A,,Clear,0,2012-12-14 12:15:00
6:35 AM,21.2,19.4,93,30.18,7.0,Calm,Calm,-,N/A,,Clear,0,2012-12-14 12:35:00
6:55 AM,21.2,19.4,93,30.18,7.0,Calm,Calm,-,N/A,,Clear,0,2012-12-14 12:55:00
7:15 AM,21.2,19.4,93,30.18,7.0,Calm,Calm,-,N/A,,Clear,0,2012-12-14 13:15:00
7:35 AM,21.2,19.4,93,30.19,7.0,Calm,Calm,-,N/A,,Mostly Cloudy,0,2012-12-14 13:35:00
7:55 AM,21.2,19.4,93,30.20,7.0,Calm,Calm,-,N/A,,Overcast,0,2012-12-14 13:55:00
8:15 AM,24.8,23.0,93,30.20,7.0,Calm,Calm,-,N/A,,Overcast,0,2012-12-14 14:15:00
8:55 AM,28.4,26.6,93,30.21,7.0,Calm,Calm,-,N/A,,Overcast,0,2012-12-14 14:55:00
9:15 AM,28.4,26.6,93,30.21,7.0,Calm,Calm,-,N/A,,Scattered Clouds,0,2012-12-14 15:15:00
9:35 AM,28.4,26.6,93,30.22,5.0,Calm,Calm,-,N/A,,Clear,0,2012-12-14 15:35:00
9:55 AM,30.2,28.4,93,30.23,7.0,East,3.5,-,N/A,,Clear,80,2012-12-14 15:55:00
10:15 AM,30.2,28.4,93,30.23,7.0,ENE,5.8,-,N/A,,Mostly Cloudy,60,2012-12-14 16:15:00
10:55 AM,32.0,28.4,87,30.22,7.0,NE,5.8,-,N/A,,Scattered Clouds,50,2012-12-14 16:55:00
11:15 AM,32.0,30.2,93,30.21,10.0,ENE,4.6,-,N/A,,Scattered Clouds,70,2012-12-14 17:15:00
11:35 AM,32.0,30.2,93,30.20,10.0,ENE,3.5,-,N/A,,Overcast,70,2012-12-14 17:35:00
11:55 AM,33.8,30.2,87,30.20,10.0,ENE,4.6,-,N/A,,Overcast,70,2012-12-14 17:55:00
12:15 PM,33.8,30.2,87,30.19,10.0,ENE,4.6,-,N/A,,Overcast,70,2012-12-14 18:15:00
12:35 PM,33.8,30.2,87,30.18,10.0,NE,4.6,-,N/A,,Overcast,50,2012-12-14 18:35:00
12:55 PM,33.8,30.2,87,30.17,10.0,ENE,5.8,-,N/A,,Mostly Cloudy,60,2012-12-14 18:55:00
1:15 PM,33.8,30.2,87,30.16,10.0,ENE,6.9,-,N/A,,Scattered Clouds,60,2012-12-14 19:15:00
1:35 PM,33.8,30.2,87,30.15,10.0,ENE,6.9,-,N/A,,Scattered Clouds,70,2012-12-14 19:35:00
1:55 PM,33.8,30.2,87,30.15,10.0,East,5.8,-,N/A,,Mostly Cloudy,80,2012-12-14 19:55:00
2:15 PM,33.8,30.2,87,30.14,10.0,ENE,5.8,-,N/A,,Overcast,70,2012-12-14 20:15:00
2:35 PM,33.8,30.2,87,30.14,10.0,ENE,5.8,-,N/A,,Overcast,70,2012-12-14 20:35:00
2:55 PM,33.8,30.2,87,30.13,10.0,ENE,9.2,-,N/A,,Overcast,60,2012-12-14 20:55:00
3:15 PM,33.8,30.2,87,30.13,10.0,ENE,6.9,-,N/A,,Overcast,60,2012-12-14 21:15:00
3:35 PM,33.8,30.2,87,30.13,10.0,ENE,6.9,-,N/A,,Overcast,70,2012-12-14 21:35:00
3:55 PM,33.8,30.2,87,30.13,10.0,ENE,6.9,-,N/A,,Mostly Cloudy,70,2012-12-14 21:55:00
4:15 PM,32.0,30.2,93,30.13,10.0,East,4.6,-,N/A,,Mostly Cloudy,80,2012-12-14 22:15:00
4:35 PM,33.8,30.2,87,30.14,10.0,East,5.8,-,N/A,,Overcast,90,2012-12-14 22:35:00
4:55 PM,33.8,30.2,87,30.13,10.0,East,6.9,-,N/A,,Overcast,80,2012-12-14 22:55:00
5:15 PM,32.0,30.2,93,30.13,10.0,East,5.8,-,N/A,,Overcast,80,2012-12-14 23:15:00
5:35 PM,32.0,30.2,93,30.13,10.0,ENE,4.6,-,N/A,,Overcast,70,2012-12-14 23:35:00
5:55 PM,32.0,30.2,93,30.13,10.0,NE,4.6,-,N/A,,Overcast,50,2012-12-14 23:55:00
6:35 PM,32.0,30.2,93,30.14,10.0,ENE,3.5,-,N/A,,Mostly Cloudy,70,2012-12-15 00:35:00
6:55 PM,32.0,30.2,93,30.12,10.0,ENE,5.8,-,N/A,,Overcast,70,2012-12-15 00:55:00
7:15 PM,32.0,30.2,93,30.13,10.0,ENE,5.8,-,N/A,,Mostly Cloudy,60,2012-12-15 01:15:00
7:35 PM,32.0,30.2,93,30.12,10.0,East,4.6,-,N/A,,Mostly Cloudy,80,2012-12-15 01:35:00
7:55 PM,32.0,30.2,93,30.11,10.0,ENE,5.8,-,N/A,,Scattered Clouds,70,2012-12-15 01:55:00
8:15 PM,32.0,30.2,93,30.11,10.0,ENE,4.6,-,N/A,,Scattered Clouds,70,2012-12-15 02:15:00
8:35 PM,32.0,32.0,100,30.12,10.0,ENE,4.6,-,N/A,,Overcast,70,2012-12-15 02:35:00
8:55 PM,33.8,32.0,93,30.11,10.0,ENE,6.9,-,N/A,,Overcast,70,2012-12-15 02:55:00
9:15 PM,32.0,32.0,100,30.10,10.0,ENE,9.2,-,N/A,,Mostly Cloudy,60,2012-12-15 03:15:00
9:35 PM,32.0,32.0,100,30.10,10.0,ENE,8.1,-,N/A,,Scattered Clouds,60,2012-12-15 03:35:00
9:55 PM,32.0,32.0,100,30.09,10.0,ENE,8.1,-,N/A,,Mostly Cloudy,60,2012-12-15 03:55:00
10:15 PM,32.0,32.0,100,30.09,10.0,ENE,5.8,-,N/A,,Overcast,60,2012-12-15 04:15:00
10:35 PM,32.0,32.0,100,30.08,10.0,ENE,6.9,-,N/A,,Overcast,70,2012-12-15 04:35:00
10:55 PM,32.0,32.0,100,30.07,10.0,ENE,5.8,-,N/A,,Overcast,70,2012-12-15 04:55:00
11:15 PM,32.0,32.0,100,30.07,10.0,ENE,6.9,-,N/A,,Overcast,70,2012-12-15 05:15:00
11:35 PM,32.0,32.0,100,30.06,10.0,ENE,6.9,-,N/A,,Overcast,60,2012-12-15 05:35:00
11:55 PM,32.0,32.0,100,30.05,10.0,ENE,8.1,-,N/A,,Overcast,70,2012-12-15 05:55:00